DGAA/ACC METAR and TAF weather

Enter ICAO airport designator
Station Type Date Time Source
DGAA METAR 2019/12/07 10:00 UTC NOAA

DGAA 071000Z 24006KT 200V270 CAVOK 30/23 Q1011 NOSIG


Station Type Date Time Source
DGAA Decoded METAR 2019/12/07 10:00 UTC NOAA

Accra, Ghana (DGAA) 05-36N 000-10W 69M
Dec 07, 2019 - 05:00 AM EST / 2019.12.07 1000 UTC
Wind: from the WSW (240 degrees) at 7 MPH (6 KT) (direction variable):0
Visibility: greater than 7 mile(s):0
Temperature: 86 F (30 C)
Heat index: 93.4 F (34.1 C):1
Dew Point: 73 F (23 C)
Relative Humidity: 66%
Pressure (altimeter): 29.85 in. Hg (1011 hPa)
ob: DGAA 071000Z 24006KT 200V270 CAVOK 30/23 Q1011 NOSIG
cycle: 10

Station Type Date Time Source
DGAA TAF 2019/12/07 06:28 UTC NOAA

TAF DGAA 070500Z 0706/0812 27008KT 9999 SCT015
TEMPO 0706/0710 5000 BR
BECMG 0712/0714 19012KT
TEMPO 0715/0719 7000 -TSRA BKN012 FEW020CB
FM080100 27005KT CAVOK

Example: see airport list